createdAt,value
2019-06-26T00:04:56.632Z,26.79
2019-06-26T00:10:35.208Z,26.69
2019-06-26T00:16:16.032Z,26.62
2019-06-26T00:21:53.779Z,26.57
2019-06-26T00:27:34.779Z,26.49
2019-06-26T00:33:21.343Z,26.47
2019-06-26T01:20:23.366Z,26.23
2019-06-26T01:28:03.189Z,26.17
2019-06-26T01:35:17.819Z,26.16
2019-06-26T01:42:48.357Z,26.02
2019-06-26T01:48:31.697Z,26.0
2019-06-26T01:54:23.809Z,25.92
2019-06-26T01:59:55.579Z,25.86
2019-06-26T02:05:28.525Z,25.82
2019-06-26T02:11:04.060Z,25.65
2019-06-26T02:16:42.592Z,25.35
2019-06-26T02:23:41.526Z,25.41
2019-06-26T02:29:29.825Z,25.42
2019-06-26T02:35:09.279Z,25.38
2019-06-26T02:40:43.133Z,25.34
2019-06-26T02:46:25.049Z,25.32
2019-06-26T02:51:58.442Z,25.26
2019-06-26T02:57:31.758Z,25.23
2019-06-26T03:03:03.438Z,25.18
2019-06-26T03:08:35.139Z,25.11
2019-06-26T03:14:06.852Z,25.08
2019-06-26T03:19:38.583Z,25.08
2019-06-26T03:25:24.769Z,25.07
2019-06-26T03:31:02.412Z,25.03
2019-06-26T03:36:37.428Z,24.93
2019-06-26T03:42:11.552Z,24.94
2019-06-26T03:47:45.088Z,24.87
2019-06-26T03:53:29.018Z,24.9
2019-06-26T03:59:01.791Z,24.95
2019-06-26T04:04:51.590Z,24.96
2019-06-26T04:10:29.978Z,25.01
2019-06-26T04:16:03.701Z,24.99
2019-06-26T04:21:35.441Z,25.04
2019-06-26T04:27:21.457Z,25.05
2019-06-26T04:33:00.797Z,25.11
2019-06-26T04:39:01.881Z,25.14
2019-06-26T04:44:52.800Z,25.12
2019-06-26T04:58:15.261Z,25.34
2019-06-26T05:04:21.799Z,25.44
2019-06-26T05:10:20.790Z,25.56
2019-06-26T05:16:14.072Z,25.72
2019-06-26T05:21:42.791Z,25.86
2019-06-26T05:27:36.458Z,26.05
2019-06-26T05:35:59.183Z,26.35
2019-06-26T05:42:27.290Z,26.6
2019-06-26T05:48:15.057Z,26.8
2019-06-26T05:53:59.757Z,26.75
2019-06-26T06:00:45.491Z,27.06
2019-06-26T06:06:48.160Z,27.35
2019-06-26T06:12:33.957Z,27.49
2019-06-26T06:31:10.778Z,27.94
2019-06-26T06:36:52.164Z,28.47
2019-06-26T06:45:17.152Z,28.47
2019-06-26T06:57:26.301Z,28.99
2019-06-26T07:15:18.214Z,29.41
2019-06-26T07:21:21.156Z,29.51
2019-06-26T07:40:09.852Z,29.72
2019-06-26T07:46:23.784Z,29.46
2019-06-26T08:02:18.736Z,30.14
2019-06-26T08:08:22.948Z,30.28
2019-06-26T08:22:21.584Z,30.34
2019-06-26T08:37:39.868Z,30.84
2019-06-26T08:44:35.268Z,31.58
2019-06-26T08:50:15.972Z,31.95
2019-06-26T08:55:55.552Z,31.29
2019-06-26T09:01:38.829Z,31.68
2019-06-26T09:07:10.623Z,31.71
2019-06-26T09:13:20.689Z,32.03
2019-06-26T09:18:52.003Z,32.41
2019-06-26T09:24:23.911Z,32.21
2019-06-26T09:30:19.571Z,31.7
2019-06-26T09:42:34.283Z,32.25
2019-06-26T09:48:52.469Z,32.12
2019-06-26T09:55:01.862Z,32.91
2019-06-26T10:00:41.583Z,32.91
2019-06-26T10:06:18.961Z,33.2
2019-06-26T10:12:32.173Z,32.68
2019-06-26T10:19:09.280Z,33.58
2019-06-26T10:24:28.230Z,33.79
2019-06-26T10:30:11.272Z,33.52
2019-06-26T10:36:24.231Z,33.44
2019-06-26T10:48:58.775Z,33.78
2019-06-26T10:54:31.491Z,33.55
2019-06-26T11:00:05.063Z,33.53
2019-06-26T11:05:37.759Z,34.05
2019-06-26T11:11:09.271Z,34.67
2019-06-26T11:16:49.165Z,34.64
2019-06-26T11:22:34.206Z,35.08
2019-06-26T11:29:03.877Z,35.34
2019-06-26T11:34:51.899Z,35.31
2019-06-26T11:40:47.535Z,34.92
2019-06-26T11:46:21.118Z,34.5
2019-06-26T11:51:52.876Z,35.15
2019-06-26T11:57:24.698Z,34.91
2019-06-26T12:02:57.039Z,34.63
2019-06-26T12:08:28.265Z,34.67
2019-06-26T12:13:59.953Z,35.06
2019-06-26T12:19:31.788Z,35.19
2019-06-26T12:25:09.816Z,34.98
2019-06-26T12:30:41.595Z,34.85
2019-06-26T12:36:13.582Z,35.18
2019-06-26T12:41:44.940Z,35.49
2019-06-26T12:47:16.682Z,35.62
2019-06-26T12:52:48.422Z,35.31
2019-06-26T12:58:20.371Z,36.01
2019-06-26T13:03:51.996Z,35.19
2019-06-26T13:09:23.701Z,35.42
2019-06-26T13:14:55.395Z,35.39
2019-06-26T13:20:27.158Z,35.54
2019-06-26T13:26:13.183Z,35.19
2019-06-26T13:31:46.847Z,35.57
2019-06-26T13:37:22.136Z,35.7
2019-06-26T13:42:53.420Z,35.76
2019-06-26T13:48:25.262Z,35.36
2019-06-26T13:59:56.499Z,35.66
2019-06-26T14:05:47.625Z,35.61
2019-06-26T14:11:21.301Z,35.88
2019-06-26T14:16:56.737Z,35.9
2019-06-26T14:22:40.556Z,36.39
2019-06-26T14:28:48.643Z,36.19
2019-06-26T14:37:04.542Z,36.26
2019-06-26T14:51:16.004Z,36.1
2019-06-26T15:00:09.752Z,35.86
2019-06-26T15:19:18.390Z,36.46
2019-06-26T15:32:11.662Z,36.05
2019-06-26T15:38:09.950Z,36.15
2019-06-26T15:44:06.330Z,35.91
2019-06-26T15:51:55.957Z,36.38
2019-06-26T15:58:34.036Z,36.42
2019-06-26T16:14:15.371Z,36.37
2019-06-26T16:54:25.516Z,36.21
2019-06-26T17:58:40.644Z,36.1
2019-06-26T18:05:39.665Z,34.53
2019-06-26T18:19:46.105Z,34.34
2019-06-26T18:34:23.616Z,33.69
2019-06-26T18:55:41.720Z,33.43
2019-06-26T19:30:17.094Z,32.18
2019-06-26T19:36:28.336Z,32.07
2019-06-26T19:41:56.764Z,31.97
2019-06-26T19:47:28.483Z,31.93
2019-06-26T19:53:00.199Z,31.86
2019-06-26T19:58:32.014Z,31.71
2019-06-26T20:04:03.763Z,31.58
2019-06-26T20:09:36.401Z,31.54
2019-06-26T20:15:08.159Z,31.45
2019-06-26T20:20:46.154Z,31.25
2019-06-26T20:26:17.914Z,31.17
2019-06-26T20:31:49.686Z,31.11
2019-06-26T20:37:21.435Z,31.06
2019-06-26T20:42:53.227Z,31.02
2019-06-26T20:48:24.907Z,31.0
2019-06-26T20:53:56.754Z,30.9
2019-06-26T20:59:28.449Z,30.89
2019-06-26T21:05:00.289Z,30.91
2019-06-26T21:10:32.224Z,30.81
2019-06-26T21:16:04.030Z,30.71
2019-06-26T21:21:42.116Z,30.63
2019-06-26T21:27:14.103Z,30.58
2019-06-26T21:32:45.874Z,30.56
2019-06-26T21:38:17.617Z,30.45
2019-06-26T21:43:49.345Z,30.34
2019-06-26T21:49:21.088Z,30.28
2019-06-26T21:54:52.821Z,30.23
2019-06-26T22:00:24.599Z,30.13
2019-06-26T22:05:56.314Z,30.08
2019-06-26T22:11:28.051Z,30.06
2019-06-26T22:16:59.772Z,30.0
2019-06-26T22:22:35.800Z,29.91
2019-06-26T22:28:07.569Z,29.82
2019-06-26T22:33:39.327Z,29.7
2019-06-26T22:39:11.006Z,29.6
2019-06-26T22:44:42.684Z,29.55
2019-06-26T22:50:14.451Z,29.52
2019-06-26T22:55:46.167Z,29.44
2019-06-26T23:01:17.891Z,29.34
2019-06-26T23:06:49.759Z,29.17
2019-06-26T23:12:21.382Z,29.12
2019-06-26T23:17:53.069Z,29.14
2019-06-26T23:23:31.072Z,29.05
2019-06-26T23:29:02.762Z,29.0
2019-06-26T23:34:34.646Z,28.98
2019-06-26T23:40:06.263Z,28.94
2019-06-26T23:45:37.984Z,28.86
2019-06-26T23:51:09.715Z,28.77
2019-06-26T23:56:41.433Z,28.76
